Prospect Creek, Prospect Cree, AK

8:52 AM AKST on November 21, 2014 (GMT -0900)
Bettles | Change Station
CLOSE
Current Station
Airport
Location: Bettles,
Elevation: 643 ft
Nearby Weather Stations
Active Advisory: High Wind Warning Active Notice: Record Report

Elev 643 ft 66.91 °N, 151.53 °W | Updated 59 minutes ago

Clear
Clear
20 °F
Feels Like 6 °F
N
16
Wind Variable Wind from ENE
Gusts 32 mph

Today
High -- | Low -- °F
--% Chance of Precip.
Yesterday
High -- | Low -- °F
Precip. -- in
10:25 AM 3:10 PM
Waning Crescent, 1% visible
Pressure 29.60 in
Visibility 10.0 miles
Clouds Clear
Windchill 6 °F
Dew Point -1 °F
Humidity 40%
Rainfall 0.00 in
Snow Depth Not available.
UV 0 out of 12
Pollen Not available.
Air Quality Not available.
Flu Activity Not available.
METAR PABT 211653Z 06014G28KT 10SM CLR M07/M18 A2955 RMK AO2 PK WND 07029/1643 SLP022 T10671183

More Conditions Fewer Conditions

Pressure 29.60 in
Visibility 10.0 miles
Clouds Clear
Windchill 6 °F
Dew Point -1 °F
Humidity 40%
Rainfall 0.00 in
Snow Depth Not available.
UV 0 out of 12
Pollen Not available.
Air Quality Not available.
Flu Activity Not available.
METAR PABT 211653Z 06014G28KT 10SM CLR M07/M18 A2955 RMK AO2 PK WND 07029/1643 SLP022 T10671183

More Conditions Fewer Conditions

10-Day Weather Forecast

Almanac

Astronomy

Nov. 21, 2014 Rise Set
Actual Time
Civil Twilight
Nautical Twilight
Astronomical Twilight
Moon
Length of Visible Light
Length of Day
Tomorrow will be .
, % of the Moon is Illuminated

Today's Extremes

State Highs State Lows

Community

WunderPhotos

Upload Photos

1,772,693 photos uploaded!

WunderBlogs® & News

Nearby

Air Quality

  Air Quality AQ Index Pollutant
Not available.

Snow Depth

Station Depth Elevation

Earthquake Activity

City Distance Mag. Time & Date
Minimum magnitude displayed is 2.5.

Coastal Water Temperatures

Place Temperature

Nearby Weather Stations